sensor_id;sensor_type;location;lat;lon;timestamp;P1;durP1;ratioP1;P2;durP2;ratioP2
22201;SDS011;11266;51.522;6.302;2023-04-25T00:00:43;11.02;;;3.85;;
22201;SDS011;11266;51.522;6.302;2023-04-25T00:01:29;8.13;;;3.38;;
22201;SDS011;11266;51.522;6.302;2023-04-25T00:02:15;9.80;;;3.75;;
22201;SDS011;11266;51.522;6.302;2023-04-25T00:03:00;9.18;;;3.38;;
22201;SDS011;11266;51.522;6.302;2023-04-25T00:03:46;6.22;;;3.05;;
22201;SDS011;11266;51.522;6.302;2023-04-25T00:04:33;12.15;;;4.15;;
22201;SDS011;11266;51.522;6.302;2023-04-25T00:05:18;10.38;;;4.28;;
22201;SDS011;11266;51.522;6.302;2023-04-25T00:06:04;14.82;;;3.88;;
22201;SDS011;11266;51.522;6.302;2023-04-25T00:06:51;9.02;;;3.35;;
22201;SDS011;11266;51.522;6.302;2023-04-25T00:07:37;10.38;;;3.67;;
22201;SDS011;11266;51.522;6.302;2023-04-25T00:08:24;8.02;;;3.58;;
22201;SDS011;11266;51.522;6.302;2023-04-25T00:09:10;10.10;;;3.47;;
22201;SDS011;11266;51.522;6.302;2023-04-25T00:09:56;12.00;;;3.88;;
22201;SDS011;11266;51.522;6.302;2023-04-25T00:10:42;10.27;;;4.38;;
22201;SDS011;11266;51.522;6.302;2023-04-25T00:11:28;7.63;;;2.90;;
22201;SDS011;11266;51.522;6.302;2023-04-25T00:12:15;9.90;;;3.67;;
22201;SDS011;11266;51.522;6.302;2023-04-25T00:13:02;13.68;;;4.45;;
22201;SDS011;11266;51.522;6.302;2023-04-25T00:13:48;13.35;;;4.20;;
22201;SDS011;11266;51.522;6.302;2023-04-25T00:14:35;9.00;;;3.33;;
22201;SDS011;11266;51.522;6.302;2023-04-25T00:15:21;7.28;;;3.03;;
22201;SDS011;11266;51.522;6.302;2023-04-25T00:16:07;9.27;;;3.50;;
22201;SDS011;11266;51.522;6.302;2023-04-25T00:16:53;10.93;;;3.72;;
22201;SDS011;11266;51.522;6.302;2023-04-25T00:17:39;10.32;;;3.08;;
22201;SDS011;11266;51.522;6.302;2023-04-25T00:18:25;9.48;;;3.60;;
22201;SDS011;11266;51.522;6.302;2023-04-25T00:19:13;9.48;;;3.55;;
22201;SDS011;11266;51.522;6.302;2023-04-25T00:19:59;10.20;;;3.28;;
22201;SDS011;11266;51.522;6.302;2023-04-25T00:20:45;9.82;;;3.83;;
22201;SDS011;11266;51.522;6.302;2023-04-25T00:21:31;13.65;;;4.30;;
22201;SDS011;11266;51.522;6.302;2023-04-25T00:22:17;9.07;;;3.58;;
22201;SDS011;11266;51.522;6.302;2023-04-25T00:23:03;10.70;;;3.80;;
22201;SDS011;11266;51.522;6.302;2023-04-25T00:23:50;11.18;;;3.80;;
22201;SDS011;11266;51.522;6.302;2023-04-25T00:24:37;9.02;;;3.35;;
22201;SDS011;11266;51.522;6.302;2023-04-25T00:25:23;7.05;;;2.97;;
22201;SDS011;11266;51.522;6.302;2023-04-25T00:26:08;8.60;;;3.70;;
22201;SDS011;11266;51.522;6.302;2023-04-25T00:26:54;9.55;;;3.00;;
22201;SDS011;11266;51.522;6.302;2023-04-25T00:27:40;9.18;;;4.28;;
22201;SDS011;11266;51.522;6.302;2023-04-25T00:28:26;7.32;;;3.15;;
22201;SDS011;11266;51.522;6.302;2023-04-25T00:29:12;13.77;;;4.25;;
22201;SDS011;11266;51.522;6.302;2023-04-25T00:29:58;10.07;;;3.70;;
22201;SDS011;11266;51.522;6.302;2023-04-25T00:30:44;11.02;;;4.07;;
22201;SDS011;11266;51.522;6.302;2023-04-25T00:31:30;11.45;;;3.67;;
22201;SDS011;11266;51.522;6.302;2023-04-25T00:32:16;11.50;;;3.70;;
22201;SDS011;11266;51.522;6.302;2023-04-25T00:33:02;8.45;;;3.53;;
22201;SDS011;11266;51.522;6.302;2023-04-25T00:33:48;7.65;;;3.38;;
22201;SDS011;11266;51.522;6.302;2023-04-25T00:34:33;8.25;;;3.63;;
22201;SDS011;11266;51.522;6.302;2023-04-25T00:35:19;11.02;;;3.42;;
22201;SDS011;11266;51.522;6.302;2023-04-25T00:36:06;8.73;;;4.00;;
22201;SDS011;11266;51.522;6.302;2023-04-25T00:36:52;10.63;;;3.63;;
22201;SDS011;11266;51.522;6.302;2023-04-25T00:37:38;11.27;;;3.78;;
22201;SDS011;11266;51.522;6.302;2023-04-25T00:38:24;9.23;;;3.85;;
22201;SDS011;11266;51.522;6.302;2023-04-25T00:39:10;10.43;;;3.80;;
22201;SDS011;11266;51.522;6.302;2023-04-25T00:39:57;11.80;;;3.65;;
22201;SDS011;11266;51.522;6.302;2023-04-25T00:40:43;11.10;;;4.20;;
22201;SDS011;11266;51.522;6.302;2023-04-25T00:41:29;10.07;;;3.75;;
22201;SDS011;11266;51.522;6.302;2023-04-25T00:42:15;9.38;;;3.80;;
22201;SDS011;11266;51.522;6.302;2023-04-25T00:43:01;10.63;;;3.53;;
22201;SDS011;11266;51.522;6.302;2023-04-25T00:43:48;11.75;;;3.97;;
22201;SDS011;11266;51.522;6.302;2023-04-25T00:44:34;11.98;;;3.50;;
22201;SDS011;11266;51.522;6.302;2023-04-25T00:45:20;12.50;;;3.45;;
22201;SDS011;11266;51.522;6.302;2023-04-25T00:46:06;7.55;;;3.10;;
22201;SDS011;11266;51.522;6.302;2023-04-25T00:46:53;12.93;;;3.45;;
22201;SDS011;11266;51.522;6.302;2023-04-25T00:47:39;8.38;;;3.58;;
22201;SDS011;11266;51.522;6.302;2023-04-25T00:48:25;12.50;;;3.75;;
22201;SDS011;11266;51.522;6.302;2023-04-25T00:49:11;12.43;;;4.38;;
22201;SDS011;11266;51.522;6.302;2023-04-25T00:50:00;9.77;;;3.67;;
22201;SDS011;11266;51.522;6.302;2023-04-25T00:50:48;12.73;;;3.78;;
22201;SDS011;11266;51.522;6.302;2023-04-25T00:51:40;10.43;;;3.42;;
22201;SDS011;11266;51.522;6.302;2023-04-25T00:52:26;11.13;;;3.58;;
22201;SDS011;11266;51.522;6.302;2023-04-25T00:53:12;12.35;;;3.13;;
22201;SDS011;11266;51.522;6.302;2023-04-25T00:53:58;11.43;;;3.78;;
22201;SDS011;11266;51.522;6.302;2023-04-25T00:54:44;13.15;;;4.15;;
22201;SDS011;11266;51.522;6.302;2023-04-25T00:55:30;11.18;;;2.90;;
22201;SDS011;11266;51.522;6.302;2023-04-25T00:56:16;9.48;;;3.15;;
22201;SDS011;11266;51.522;6.302;2023-04-25T00:57:02;11.90;;;3.55;;
22201;SDS011;11266;51.522;6.302;2023-04-25T00:57:48;10.95;;;3.63;;
22201;SDS011;11266;51.522;6.302;2023-04-25T00:58:35;7.78;;;3.55;;
22201;SDS011;11266;51.522;6.302;2023-04-25T00:59:22;7.75;;;3.47;;
22201;SDS011;11266;51.522;6.302;2023-04-25T01:00:08;12.27;;;3.75;;
22201;SDS011;11266;51.522;6.302;2023-04-25T01:00:56;8.13;;;3.08;;
22201;SDS011;11266;51.522;6.302;2023-04-25T01:01:43;13.30;;;4.20;;
22201;SDS011;11266;51.522;6.302;2023-04-25T01:02:30;12.05;;;3.83;;
22201;SDS011;11266;51.522;6.302;2023-04-25T01:03:17;7.68;;;2.90;;
22201;SDS011;11266;51.522;6.302;2023-04-25T01:04:07;7.55;;;3.00;;
22201;SDS011;11266;51.522;6.302;2023-04-25T01:04:52;7.55;;;3.08;;
22201;SDS011;11266;51.522;6.302;2023-04-25T01:05:39;10.02;;;3.75;;
22201;SDS011;11266;51.522;6.302;2023-04-25T01:06:26;12.05;;;4.03;;
22201;SDS011;11266;51.522;6.302;2023-04-25T01:07:13;12.55;;;4.00;;
22201;SDS011;11266;51.522;6.302;2023-04-25T01:08:00;11.77;;;3.28;;
22201;SDS011;11266;51.522;6.302;2023-04-25T01:08:46;9.57;;;3.15;;
22201;SDS011;11266;51.522;6.302;2023-04-25T01:09:32;13.20;;;3.35;;
22201;SDS011;11266;51.522;6.302;2023-04-25T01:10:18;8.00;;;3.35;;
22201;SDS011;11266;51.522;6.302;2023-04-25T01:11:05;8.68;;;3.28;;
22201;SDS011;11266;51.522;6.302;2023-04-25T01:11:51;7.47;;;3.15;;
22201;SDS011;11266;51.522;6.302;2023-04-25T01:12:37;8.75;;;3.65;;
22201;SDS011;11266;51.522;6.302;2023-04-25T01:13:23;13.23;;;3.97;;
22201;SDS011;11266;51.522;6.302;2023-04-25T01:14:09;8.02;;;3.10;;
22201;SDS011;11266;51.522;6.302;2023-04-25T01:14:54;9.90;;;3.72;;
22201;SDS011;11266;51.522;6.302;2023-04-25T01:15:40;9.07;;;3.13;;
22201;SDS011;11266;51.522;6.302;2023-04-25T01:16:26;9.77;;;3.40;;
22201;SDS011;11266;51.522;6.302;2023-04-25T01:17:13;10.48;;;3.03;;
22201;SDS011;11266;51.522;6.302;2023-04-25T01:17:59;9.32;;;3.42;;
22201;SDS011;11266;51.522;6.302;2023-04-25T01:18:46;6.82;;;2.75;;
22201;SDS011;11266;51.522;6.302;2023-04-25T01:19:32;9.77;;;3.33;;
22201;SDS011;11266;51.522;6.302;2023-04-25T01:20:18;7.70;;;2.58;;
22201;SDS011;11266;51.522;6.302;2023-04-25T01:21:07;7.72;;;2.83;;
22201;SDS011;11266;51.522;6.302;2023-04-25T01:21:54;9.65;;;3.05;;
22201;SDS011;11266;51.522;6.302;2023-04-25T01:22:40;9.75;;;3.45;;
22201;SDS011;11266;51.522;6.302;2023-04-25T01:23:27;16.95;;;4.05;;
22201;SDS011;11266;51.522;6.302;2023-04-25T01:24:13;9.45;;;3.60;;
22201;SDS011;11266;51.522;6.302;2023-04-25T01:24:59;6.82;;;3.17;;
22201;SDS011;11266;51.522;6.302;2023-04-25T01:25:46;10.85;;;3.88;;
22201;SDS011;11266;51.522;6.302;2023-04-25T01:26:33;9.05;;;2.80;;
22201;SDS011;11266;51.522;6.302;2023-04-25T01:27:20;7.57;;;3.03;;
22201;SDS011;11266;51.522;6.302;2023-04-25T01:28:07;9.93;;;3.03;;
22201;SDS011;11266;51.522;6.302;2023-04-25T01:28:54;8.35;;;3.05;;
22201;SDS011;11266;51.522;6.302;2023-04-25T01:29:40;8.90;;;3.47;;
22201;SDS011;11266;51.522;6.302;2023-04-25T01:30:26;8.75;;;3.00;;
22201;SDS011;11266;51.522;6.302;2023-04-25T01:31:12;7.85;;;3.05;;
22201;SDS011;11266;51.522;6.302;2023-04-25T01:31:59;10.52;;;3.25;;
22201;SDS011;11266;51.522;6.302;2023-04-25T01:32:46;7.63;;;2.45;;
22201;SDS011;11266;51.522;6.302;2023-04-25T01:33:33;6.38;;;2.50;;
22201;SDS011;11266;51.522;6.302;2023-04-25T01:34:18;9.90;;;3.40;;
22201;SDS011;11266;51.522;6.302;2023-04-25T01:35:05;8.57;;;3.35;;
22201;SDS011;11266;51.522;6.302;2023-04-25T01:35:55;9.88;;;3.47;;
22201;SDS011;11266;51.522;6.302;2023-04-25T01:36:41;11.68;;;3.28;;
22201;SDS011;11266;51.522;6.302;2023-04-25T01:37:26;10.40;;;2.92;;
22201;SDS011;11266;51.522;6.302;2023-04-25T01:38:13;9.07;;;2.72;;
22201;SDS011;11266;51.522;6.302;2023-04-25T01:38:59;7.15;;;2.92;;
22201;SDS011;11266;51.522;6.302;2023-04-25T01:39:46;9.40;;;3.05;;
22201;SDS011;11266;51.522;6.302;2023-04-25T01:40:33;8.10;;;2.85;;
22201;SDS011;11266;51.522;6.302;2023-04-25T01:41:21;7.45;;;2.85;;
22201;SDS011;11266;51.522;6.302;2023-04-25T01:42:08;8.48;;;3.22;;
22201;SDS011;11266;51.522;6.302;2023-04-25T01:42:54;7.43;;;3.35;;
22201;SDS011;11266;51.522;6.302;2023-04-25T01:43:40;8.32;;;2.90;;
22201;SDS011;11266;51.522;6.302;2023-04-25T01:44:26;10.82;;;3.30;;
22201;SDS011;11266;51.522;6.302;2023-04-25T01:45:12;8.95;;;2.85;;
22201;SDS011;11266;51.522;6.302;2023-04-25T01:45:58;7.70;;;3.13;;
22201;SDS011;11266;51.522;6.302;2023-04-25T01:46:44;9.65;;;3.17;;
22201;SDS011;11266;51.522;6.302;2023-04-25T01:47:30;12.88;;;3.17;;
22201;SDS011;11266;51.522;6.302;2023-04-25T01:48:16;9.02;;;3.10;;
22201;SDS011;11266;51.522;6.302;2023-04-25T01:49:02;6.25;;;2.60;;
22201;SDS011;11266;51.522;6.302;2023-04-25T01:49:48;8.00;;;3.00;;
22201;SDS011;11266;51.522;6.302;2023-04-25T01:50:33;10.05;;;3.28;;
22201;SDS011;11266;51.522;6.302;2023-04-25T01:51:19;13.95;;;4.22;;
22201;SDS011;11266;51.522;6.302;2023-04-25T01:52:05;7.78;;;3.00;;
22201;SDS011;11266;51.522;6.302;2023-04-25T01:52:51;6.80;;;2.80;;
22201;SDS011;11266;51.522;6.302;2023-04-25T01:53:39;8.65;;;2.35;;
22201;SDS011;11266;51.522;6.302;2023-04-25T01:54:25;9.00;;;3.05;;
22201;SDS011;11266;51.522;6.302;2023-04-25T01:55:10;12.77;;;3.47;;
22201;SDS011;11266;51.522;6.302;2023-04-25T01:55:56;14.65;;;3.70;;
22201;SDS011;11266;51.522;6.302;2023-04-25T01:56:42;10.20;;;3.45;;
22201;SDS011;11266;51.522;6.302;2023-04-25T01:57:28;12.65;;;3.08;;
22201;SDS011;11266;51.522;6.302;2023-04-25T01:58:13;9.07;;;3.00;;
22201;SDS011;11266;51.522;6.302;2023-04-25T01:58:59;9.85;;;2.78;;
22201;SDS011;11266;51.522;6.302;2023-04-25T01:59:45;8.35;;;2.97;;
22201;SDS011;11266;51.522;6.302;2023-04-25T02:00:31;10.10;;;2.70;;
22201;SDS011;11266;51.522;6.302;2023-04-25T02:01:17;8.18;;;3.00;;
22201;SDS011;11266;51.522;6.302;2023-04-25T08:03:41;7.45;;;2.15;;
22201;SDS011;11266;51.522;6.302;2023-04-25T08:04:28;8.98;;;2.58;;
22201;SDS011;11266;51.522;6.302;2023-04-25T08:05:14;9.75;;;2.78;;
22201;SDS011;11266;51.522;6.302;2023-04-25T08:06:01;7.85;;;2.28;;
22201;SDS011;11266;51.522;6.302;2023-04-25T08:06:46;6.57;;;2.00;;
22201;SDS011;11266;51.522;6.302;2023-04-25T08:07:32;10.20;;;2.83;;
22201;SDS011;11266;51.522;6.302;2023-04-25T08:08:18;9.52;;;2.88;;
22201;SDS011;11266;51.522;6.302;2023-04-25T08:09:04;11.07;;;2.70;;
22201;SDS011;11266;51.522;6.302;2023-04-25T08:09:50;6.47;;;2.42;;
22201;SDS011;11266;51.522;6.302;2023-04-25T08:10:36;8.60;;;2.42;;
22201;SDS011;11266;51.522;6.302;2023-04-25T08:11:22;8.73;;;2.60;;
22201;SDS011;11266;51.522;6.302;2023-04-25T08:12:07;5.28;;;2.05;;
22201;SDS011;11266;51.522;6.302;2023-04-25T08:12:53;7.93;;;2.25;;
22201;SDS011;11266;51.522;6.302;2023-04-25T08:13:39;4.53;;;1.65;;
22201;SDS011;11266;51.522;6.302;2023-04-25T08:14:25;7.57;;;2.30;;
22201;SDS011;11266;51.522;6.302;2023-04-25T08:15:10;8.88;;;2.28;;
22201;SDS011;11266;51.522;6.302;2023-04-25T08:15:58;10.23;;;2.65;;
22201;SDS011;11266;51.522;6.302;2023-04-25T08:16:44;6.85;;;2.15;;
22201;SDS011;11266;51.522;6.302;2023-04-25T08:17:30;6.00;;;2.17;;
22201;SDS011;11266;51.522;6.302;2023-04-25T08:18:16;6.47;;;1.95;;
22201;SDS011;11266;51.522;6.302;2023-04-25T08:19:02;7.80;;;2.22;;
22201;SDS011;11266;51.522;6.302;2023-04-25T08:19:47;9.07;;;2.80;;
22201;SDS011;11266;51.522;6.302;2023-04-25T08:20:34;9.35;;;2.00;;
22201;SDS011;11266;51.522;6.302;2023-04-25T08:21:19;4.72;;;1.85;;
22201;SDS011;11266;51.522;6.302;2023-04-25T08:22:05;7.35;;;2.55;;
22201;SDS011;11266;51.522;6.302;2023-04-25T08:22:51;9.10;;;2.47;;
22201;SDS011;11266;51.522;6.302;2023-04-25T08:23:37;6.15;;;1.67;;
22201;SDS011;11266;51.522;6.302;2023-04-25T08:24:23;11.05;;;2.30;;
22201;SDS011;11266;51.522;6.302;2023-04-25T08:25:09;5.93;;;2.10;;
22201;SDS011;11266;51.522;6.302;2023-04-25T08:25:55;7.45;;;2.35;;
22201;SDS011;11266;51.522;6.302;2023-04-25T08:26:40;7.07;;;2.20;;
22201;SDS011;11266;51.522;6.302;2023-04-25T08:27:26;10.15;;;1.98;;
22201;SDS011;11266;51.522;6.302;2023-04-25T08:28:12;7.28;;;1.90;;
22201;SDS011;11266;51.522;6.302;2023-04-25T08:28:58;7.13;;;2.15;;
22201;SDS011;11266;51.522;6.302;2023-04-25T08:29:44;6.10;;;1.88;;
22201;SDS011;11266;51.522;6.302;2023-04-25T08:30:29;9.07;;;1.98;;
22201;SDS011;11266;51.522;6.302;2023-04-25T08:31:16;10.20;;;2.47;;
22201;SDS011;11266;51.522;6.302;2023-04-25T08:32:02;6.80;;;1.95;;
22201;SDS011;11266;51.522;6.302;2023-04-25T08:32:48;7.90;;;2.05;;
22201;SDS011;11266;51.522;6.302;2023-04-25T08:33:33;6.43;;;1.88;;
22201;SDS011;11266;51.522;6.302;2023-04-25T08:34:19;7.35;;;2.10;;
22201;SDS011;11266;51.522;6.302;2023-04-25T08:35:05;8.43;;;2.40;;
22201;SDS011;11266;51.522;6.302;2023-04-25T08:35:52;6.85;;;2.30;;
22201;SDS011;11266;51.522;6.302;2023-04-25T08:36:38;9.00;;;1.92;;
22201;SDS011;11266;51.522;6.302;2023-04-25T08:37:24;7.18;;;2.08;;
22201;SDS011;11266;51.522;6.302;2023-04-25T08:38:09;5.45;;;1.80;;
22201;SDS011;11266;51.522;6.302;2023-04-25T08:38:55;9.32;;;2.38;;
22201;SDS011;11266;51.522;6.302;2023-04-25T08:39:41;9.23;;;2.28;;
22201;SDS011;11266;51.522;6.302;2023-04-25T08:40:27;5.40;;;1.98;;
22201;SDS011;11266;51.522;6.302;2023-04-25T08:41:16;5.35;;;1.80;;
22201;SDS011;11266;51.522;6.302;2023-04-25T08:42:06;6.53;;;2.17;;
22201;SDS011;11266;51.522;6.302;2023-04-25T08:42:56;7.15;;;1.58;;
22201;SDS011;11266;51.522;6.302;2023-04-25T08:43:44;7.80;;;2.17;;
22201;SDS011;11266;51.522;6.302;2023-04-25T08:44:30;6.63;;;1.70;;
22201;SDS011;11266;51.522;6.302;2023-04-25T08:45:17;8.00;;;2.47;;
22201;SDS011;11266;51.522;6.302;2023-04-25T08:46:03;5.25;;;1.80;;
22201;SDS011;11266;51.522;6.302;2023-04-25T08:46:50;6.38;;;2.33;;
22201;SDS011;11266;51.522;6.302;2023-04-25T08:47:38;8.45;;;2.45;;
22201;SDS011;11266;51.522;6.302;2023-04-25T08:48:24;5.95;;;1.90;;
22201;SDS011;11266;51.522;6.302;2023-04-25T08:49:13;7.90;;;1.83;;
22201;SDS011;11266;51.522;6.302;2023-04-25T08:50:01;7.38;;;2.40;;
22201;SDS011;11266;51.522;6.302;2023-04-25T08:50:52;7.43;;;1.90;;
22201;SDS011;11266;51.522;6.302;2023-04-25T08:51:43;7.03;;;2.20;;
22201;SDS011;11266;51.522;6.302;2023-04-25T08:52:43;8.60;;;2.53;;
22201;SDS011;11266;51.522;6.302;2023-04-25T08:53:31;6.57;;;1.70;;
22201;SDS011;11266;51.522;6.302;2023-04-25T08:54:19;7.57;;;1.95;;
22201;SDS011;11266;51.522;6.302;2023-04-25T08:55:10;6.32;;;1.80;;
22201;SDS011;11266;51.522;6.302;2023-04-25T08:55:58;6.45;;;1.88;;
22201;SDS011;11266;51.522;6.302;2023-04-25T08:56:47;6.53;;;2.30;;
22201;SDS011;11266;51.522;6.302;2023-04-25T08:57:33;6.85;;;1.75;;
22201;SDS011;11266;51.522;6.302;2023-04-25T08:58:20;5.78;;;1.80;;
22201;SDS011;11266;51.522;6.302;2023-04-25T08:59:06;11.20;;;2.92;;
22201;SDS011;11266;51.522;6.302;2023-04-25T08:59:53;6.40;;;1.70;;
22201;SDS011;11266;51.522;6.302;2023-04-25T09:00:40;6.68;;;1.70;;
22201;SDS011;11266;51.522;6.302;2023-04-25T09:01:26;8.48;;;2.28;;
22201;SDS011;11266;51.522;6.302;2023-04-25T09:02:12;8.63;;;2.20;;
22201;SDS011;11266;51.522;6.302;2023-04-25T09:03:02;6.95;;;2.08;;
22201;SDS011;11266;51.522;6.302;2023-04-25T09:03:48;6.85;;;1.75;;
22201;SDS011;11266;51.522;6.302;2023-04-25T09:04:35;5.57;;;1.73;;
22201;SDS011;11266;51.522;6.302;2023-04-25T09:05:21;10.50;;;2.97;;
22201;SDS011;11266;51.522;6.302;2023-04-25T09:06:09;9.40;;;1.85;;
22201;SDS011;11266;51.522;6.302;2023-04-25T09:06:56;6.05;;;1.80;;
22201;SDS011;11266;51.522;6.302;2023-04-25T09:07:42;3.95;;;1.60;;
22201;SDS011;11266;51.522;6.302;2023-04-25T09:08:27;5.00;;;1.73;;
22201;SDS011;11266;51.522;6.302;2023-04-25T09:09:13;7.68;;;2.03;;
22201;SDS011;11266;51.522;6.302;2023-04-25T09:09:59;6.53;;;2.03;;
22201;SDS011;11266;51.522;6.302;2023-04-25T09:10:46;6.32;;;1.80;;
22201;SDS011;11266;51.522;6.302;2023-04-25T09:11:33;7.28;;;1.83;;
22201;SDS011;11266;51.522;6.302;2023-04-25T09:12:21;7.47;;;1.92;;
22201;SDS011;11266;51.522;6.302;2023-04-25T09:13:11;6.57;;;2.00;;
22201;SDS011;11266;51.522;6.302;2023-04-25T09:15:08;6.60;;;1.67;;
22201;SDS011;11266;51.522;6.302;2023-04-25T09:15:56;4.63;;;1.83;;
22201;SDS011;11266;51.522;6.302;2023-04-25T09:17:43;5.95;;;1.83;;
22201;SDS011;11266;51.522;6.302;2023-04-25T09:18:31;7.85;;;1.70;;
22201;SDS011;11266;51.522;6.302;2023-04-25T09:19:21;6.40;;;1.90;;
22201;SDS011;11266;51.522;6.302;2023-04-25T09:20:12;6.07;;;1.88;;
22201;SDS011;11266;51.522;6.302;2023-04-25T09:21:08;7.63;;;1.83;;
22201;SDS011;11266;51.522;6.302;2023-04-25T09:21:59;5.53;;;1.90;;
22201;SDS011;11266;51.522;6.302;2023-04-25T09:22:47;7.28;;;2.05;;
22201;SDS011;11266;51.522;6.302;2023-04-25T09:23:44;7.95;;;1.95;;
22201;SDS011;11266;51.522;6.302;2023-04-25T09:24:34;5.05;;;1.88;;
22201;SDS011;11266;51.522;6.302;2023-04-25T09:25:24;6.50;;;2.05;;
22201;SDS011;11266;51.522;6.302;2023-04-25T09:26:13;8.02;;;1.90;;
22201;SDS011;11266;51.522;6.302;2023-04-25T09:27:03;9.23;;;2.35;;
22201;SDS011;11266;51.522;6.302;2023-04-25T09:27:50;6.75;;;1.90;;
22201;SDS011;11266;51.522;6.302;2023-04-25T09:28:37;4.97;;;1.50;;
22201;SDS011;11266;51.522;6.302;2023-04-25T09:29:30;4.80;;;1.73;;
22201;SDS011;11266;51.522;6.302;2023-04-25T09:30:17;6.03;;;1.85;;
22201;SDS011;11266;51.522;6.302;2023-04-25T09:31:03;9.45;;;1.92;;
22201;SDS011;11266;51.522;6.302;2023-04-25T09:31:50;7.38;;;1.75;;
22201;SDS011;11266;51.522;6.302;2023-04-25T09:32:36;5.95;;;1.95;;
22201;SDS011;11266;51.522;6.302;2023-04-25T09:33:26;7.55;;;1.77;;
22201;SDS011;11266;51.522;6.302;2023-04-25T09:34:21;7.25;;;1.67;;
22201;SDS011;11266;51.522;6.302;2023-04-25T09:35:11;5.65;;;1.63;;
22201;SDS011;11266;51.522;6.302;2023-04-25T09:36:10;6.47;;;1.70;;
22201;SDS011;11266;51.522;6.302;2023-04-25T09:36:56;7.70;;;2.00;;
22201;SDS011;11266;51.522;6.302;2023-04-25T09:37:46;6.85;;;1.60;;
22201;SDS011;11266;51.522;6.302;2023-04-25T09:38:32;5.90;;;1.63;;
22201;SDS011;11266;51.522;6.302;2023-04-25T09:39:32;8.60;;;1.77;;
22201;SDS011;11266;51.522;6.302;2023-04-25T09:40:18;6.90;;;1.90;;
22201;SDS011;11266;51.522;6.302;2023-04-25T09:41:04;7.32;;;1.60;;
22201;SDS011;11266;51.522;6.302;2023-04-25T09:41:53;10.10;;;1.65;;
22201;SDS011;11266;51.522;6.302;2023-04-25T09:42:41;6.80;;;1.80;;
22201;SDS011;11266;51.522;6.302;2023-04-25T09:43:27;5.07;;;1.90;;
22201;SDS011;11266;51.522;6.302;2023-04-25T09:44:12;5.05;;;1.80;;
22201;SDS011;11266;51.522;6.302;2023-04-25T09:44:59;6.30;;;1.60;;
22201;SDS011;11266;51.522;6.302;2023-04-25T09:45:51;5.03;;;1.60;;
22201;SDS011;11266;51.522;6.302;2023-04-25T09:46:49;6.15;;;1.88;;
22201;SDS011;11266;51.522;6.302;2023-04-25T09:47:38;5.40;;;1.63;;
22201;SDS011;11266;51.522;6.302;2023-04-25T09:48:25;5.72;;;1.63;;
22201;SDS011;11266;51.522;6.302;2023-04-25T09:49:12;5.55;;;1.55;;
22201;SDS011;11266;51.522;6.302;2023-04-25T09:50:00;4.75;;;1.58;;
22201;SDS011;11266;51.522;6.302;2023-04-25T09:50:54;6.88;;;1.70;;
22201;SDS011;11266;51.522;6.302;2023-04-25T09:51:55;6.95;;;1.60;;
22201;SDS011;11266;51.522;6.302;2023-04-25T09:52:42;6.00;;;1.90;;
22201;SDS011;11266;51.522;6.302;2023-04-25T09:53:28;6.07;;;2.13;;
22201;SDS011;11266;51.522;6.302;2023-04-25T09:54:14;5.32;;;2.00;;
22201;SDS011;11266;51.522;6.302;2023-04-25T09:55:00;6.38;;;2.08;;
22201;SDS011;11266;51.522;6.302;2023-04-25T09:55:46;4.88;;;1.50;;
22201;SDS011;11266;51.522;6.302;2023-04-25T09:56:32;6.13;;;1.83;;
22201;SDS011;11266;51.522;6.302;2023-04-25T09:57:23;7.10;;;2.20;;
22201;SDS011;11266;51.522;6.302;2023-04-25T09:58:09;4.60;;;1.60;;
22201;SDS011;11266;51.522;6.302;2023-04-25T09:58:56;8.88;;;2.55;;
22201;SDS011;11266;51.522;6.302;2023-04-25T09:59:43;10.30;;;2.33;;
22201;SDS011;11266;51.522;6.302;2023-04-25T10:00:33;6.00;;;2.10;;
22201;SDS011;11266;51.522;6.302;2023-04-25T10:01:20;5.80;;;1.73;;
22201;SDS011;11266;51.522;6.302;2023-04-25T10:02:08;7.43;;;1.85;;
22201;SDS011;11266;51.522;6.302;2023-04-25T10:02:55;5.05;;;1.83;;
22201;SDS011;11266;51.522;6.302;2023-04-25T10:03:44;5.45;;;1.90;;
22201;SDS011;11266;51.522;6.302;2023-04-25T10:04:33;7.55;;;2.15;;
22201;SDS011;11266;51.522;6.302;2023-04-25T10:05:20;6.30;;;2.10;;
22201;SDS011;11266;51.522;6.302;2023-04-25T10:06:08;6.72;;;2.10;;
22201;SDS011;11266;51.522;6.302;2023-04-25T10:06:59;4.25;;;1.55;;
22201;SDS011;11266;51.522;6.302;2023-04-25T10:07:46;4.78;;;1.65;;
22201;SDS011;11266;51.522;6.302;2023-04-25T10:08:33;6.47;;;2.33;;
22201;SDS011;11266;51.522;6.302;2023-04-25T10:09:21;6.32;;;2.00;;
22201;SDS011;11266;51.522;6.302;2023-04-25T10:10:11;5.72;;;1.75;;
22201;SDS011;11266;51.522;6.302;2023-04-25T10:10:59;5.03;;;1.92;;
22201;SDS011;11266;51.522;6.302;2023-04-25T10:11:47;5.80;;;1.75;;
22201;SDS011;11266;51.522;6.302;2023-04-25T10:12:33;9.73;;;2.08;;
22201;SDS011;11266;51.522;6.302;2023-04-25T10:13:19;5.95;;;1.73;;
22201;SDS011;11266;51.522;6.302;2023-04-25T10:14:06;8.73;;;1.88;;
22201;SDS011;11266;51.522;6.302;2023-04-25T10:14:52;4.10;;;1.70;;
22201;SDS011;11266;51.522;6.302;2023-04-25T10:15:39;7.40;;;1.83;;
22201;SDS011;11266;51.522;6.302;2023-04-25T10:16:26;6.07;;;1.50;;
22201;SDS011;11266;51.522;6.302;2023-04-25T10:17:13;5.05;;;1.70;;
22201;SDS011;11266;51.522;6.302;2023-04-25T10:17:59;9.23;;;2.35;;
22201;SDS011;11266;51.522;6.302;2023-04-25T10:18:45;6.82;;;2.15;;
22201;SDS011;11266;51.522;6.302;2023-04-25T10:19:31;7.15;;;2.17;;
22201;SDS011;11266;51.522;6.302;2023-04-25T10:20:17;7.47;;;1.73;;
22201;SDS011;11266;51.522;6.302;2023-04-25T10:21:04;6.38;;;1.70;;
22201;SDS011;11266;51.522;6.302;2023-04-25T10:21:55;5.68;;;2.03;;
22201;SDS011;11266;51.522;6.302;2023-04-25T10:22:43;4.95;;;1.85;;
22201;SDS011;11266;51.522;6.302;2023-04-25T10:23:31;6.35;;;1.75;;
22201;SDS011;11266;51.522;6.302;2023-04-25T10:24:19;6.43;;;2.08;;
22201;SDS011;11266;51.522;6.302;2023-04-25T10:25:05;5.65;;;1.80;;
22201;SDS011;11266;51.522;6.302;2023-04-25T10:25:53;7.07;;;2.00;;
22201;SDS011;11266;51.522;6.302;2023-04-25T10:26:39;4.50;;;1.77;;
22201;SDS011;11266;51.522;6.302;2023-04-25T10:27:28;5.22;;;1.92;;
22201;SDS011;11266;51.522;6.302;2023-04-25T10:28:15;6.28;;;1.92;;
22201;SDS011;11266;51.522;6.302;2023-04-25T10:29:01;6.95;;;2.05;;
22201;SDS011;11266;51.522;6.302;2023-04-25T10:30:04;8.98;;;2.20;;
22201;SDS011;11266;51.522;6.302;2023-04-25T10:31:46;4.55;;;1.63;;
22201;SDS011;11266;51.522;6.302;2023-04-25T10:32:32;5.28;;;1.85;;
22201;SDS011;11266;51.522;6.302;2023-04-25T10:33:18;5.45;;;2.00;;
22201;SDS011;11266;51.522;6.302;2023-04-25T10:34:37;7.88;;;2.10;;
22201;SDS011;11266;51.522;6.302;2023-04-25T10:35:27;6.85;;;2.03;;
22201;SDS011;11266;51.522;6.302;2023-04-25T10:36:19;7.85;;;1.85;;
22201;SDS011;11266;51.522;6.302;2023-04-25T10:37:08;5.50;;;1.73;;
22201;SDS011;11266;51.522;6.302;2023-04-25T10:38:10;8.40;;;2.10;;
22201;SDS011;11266;51.522;6.302;2023-04-25T10:39:02;7.95;;;1.90;;
22201;SDS011;11266;51.522;6.302;2023-04-25T10:39:54;8.82;;;2.05;;
22201;SDS011;11266;51.522;6.302;2023-04-25T10:40:39;7.82;;;1.90;;
22201;SDS011;11266;51.522;6.302;2023-04-25T10:41:25;7.15;;;2.28;;
22201;SDS011;11266;51.522;6.302;2023-04-25T10:42:15;5.43;;;1.50;;
22201;SDS011;11266;51.522;6.302;2023-04-25T10:44:28;7.63;;;1.90;;
22201;SDS011;11266;51.522;6.302;2023-04-25T10:45:14;7.18;;;1.88;;
22201;SDS011;11266;51.522;6.302;2023-04-25T10:46:00;5.78;;;2.47;;
22201;SDS011;11266;51.522;6.302;2023-04-25T10:46:50;6.82;;;2.30;;
22201;SDS011;11266;51.522;6.302;2023-04-25T10:47:45;7.00;;;1.90;;
22201;SDS011;11266;51.522;6.302;2023-04-25T10:48:34;5.60;;;1.85;;
22201;SDS011;11266;51.522;6.302;2023-04-25T10:49:30;11.73;;;1.92;;
22201;SDS011;11266;51.522;6.302;2023-04-25T10:50:18;10.35;;;2.03;;
22201;SDS011;11266;51.522;6.302;2023-04-25T10:51:10;8.07;;;2.10;;